Time;durP1;ratioP1;P1;durP2;ratioP2;P2;SDS_P1;SDS_P2;PMS_P1;PMS_P2;Temp;Humidity;BMP_temperature;BMP_pressure;BME280_temperature;BME280_humidity;BME280_pressure;Samples;Min_cycle;Max_cycle;Signal;HPM_P1;HPM_P2
2021/07/27 00:01:57;;;;;;;25.35;18.05;;;18.20;99.90;;;;;;5095897;28;20089;-74
2021/07/27 00:04:22;;;;;;;22.15;16.20;;;18.20;99.90;;;;;;5095711;28;20123;-74
2021/07/27 00:06:48;;;;;;;21.08;16.98;;;18.20;99.90;;;;;;5095887;28;20112;-74
2021/07/27 00:09:14;;;;;;;26.02;18.33;;;18.20;99.90;;;;;;5095204;28;20036;-74
2021/07/27 00:11:40;;;;;;;23.02;17.40;;;18.20;99.90;;;;;;5095549;28;20093;-75
2021/07/27 00:14:05;;;;;;;25.02;18.15;;;18.20;99.90;;;;;;5095980;28;20118;-75
2021/07/27 00:16:32;;;;;;;27.15;18.25;;;18.20;99.90;;;;;;5095307;28;20079;-75
2021/07/27 00:18:58;;;;;;;27.13;19.65;;;18.20;99.90;;;;;;5095056;28;20400;-75
2021/07/27 00:21:24;;;;;;;25.98;19.48;;;18.30;99.90;;;;;;5095155;28;20036;-75
2021/07/27 00:23:50;;;;;;;27.55;19.73;;;18.20;99.90;;;;;;5095154;28;20043;-74
2021/07/27 00:26:16;;;;;;;26.20;20.58;;;18.10;99.90;;;;;;5095758;28;20079;-75
2021/07/27 00:28:43;;;;;;;24.83;18.67;;;18.10;99.90;;;;;;5094816;28;20075;-75
2021/07/27 00:31:19;;;;;;;25.27;18.40;;;18.20;99.90;;;;;;5095391;28;20472;-74
2021/07/27 00:33:46;;;;;;;26.27;21.15;;;18.20;99.90;;;;;;5095077;28;20067;-75
2021/07/27 00:36:12;;;;;;;32.25;22.65;;;18.20;99.90;;;;;;5095168;28;20036;-75
2021/07/27 00:38:37;;;;;;;29.75;21.60;;;18.20;99.90;;;;;;5094940;28;20085;-75
2021/07/27 00:41:03;;;;;;;31.40;21.95;;;18.30;99.90;;;;;;5095432;28;20400;-75
2021/07/27 00:43:29;;;;;;;36.20;23.90;;;18.20;99.90;;;;;;5094763;28;20146;-75
2021/07/27 00:45:55;;;;;;;33.88;23.80;;;18.30;99.90;;;;;;5095004;28;20040;-75
2021/07/27 00:48:20;;;;;;;31.48;23.88;;;18.30;99.90;;;;;;5095068;28;20448;-75
2021/07/27 00:50:46;;;;;;;32.97;24.60;;;18.40;99.90;;;;;;5094770;28;20372;-75
2021/07/27 00:53:14;;;;;;;42.63;27.92;;;18.40;99.90;;;;;;5095333;28;20040;-75
2021/07/27 00:55:40;;;;;;;42.25;29.75;;;18.40;99.90;;;;;;5095162;28;20036;-75
2021/07/27 00:58:06;;;;;;;37.38;27.10;;;18.40;99.90;;;;;;5076008;28;20048;-75
2021/07/27 01:00:32;;;;;;;38.95;28.10;;;18.40;99.90;;;;;;5094134;28;20043;-76
2021/07/27 01:02:58;;;;;;;36.22;27.58;;;18.50;99.90;;;;;;5095076;28;20036;-76
2021/07/27 01:05:26;;;;;;;40.75;30.08;;;18.50;99.90;;;;;;5094474;28;20450;-74
2021/07/27 01:07:51;;;;;;;40.90;28.13;;;18.50;99.90;;;;;;5095069;28;20165;-75
2021/07/27 01:10:17;;;;;;;39.65;28.80;;;18.50;99.90;;;;;;5093885;28;20067;-75
2021/07/27 01:12:47;;;;;;;49.00;30.83;;;18.60;99.90;;;;;;5094254;28;20044;-76
2021/07/27 01:15:14;;;;;;;43.85;30.38;;;18.60;99.90;;;;;;5094337;28;20508;-76
2021/07/27 01:17:40;;;;;;;39.80;28.25;;;18.60;99.90;;;;;;5094622;28;20075;-76
2021/07/27 01:44:29;;;;;;;49.15;33.17;;;18.50;99.90;;;;;;5093844;28;20071;-75
2021/07/27 01:46:54;;;;;;;43.78;31.58;;;18.50;99.90;;;;;;5093922;28;20064;-75
2021/07/27 01:49:20;;;;;;;48.03;34.42;;;18.50;99.90;;;;;;5093535;28;20070;-75
2021/07/27 01:51:46;;;;;;;53.70;35.85;;;18.40;99.90;;;;;;5093479;28;20552;-75
2021/07/27 01:54:15;;;;;;;43.90;32.47;;;18.40;99.90;;;;;;5093602;28;20123;-75
2021/07/27 01:56:41;;;;;;;56.47;36.88;;;18.40;99.90;;;;;;5093756;28;20515;-75
2021/07/27 01:59:10;;;;;;;55.88;34.30;;;18.40;99.90;;;;;;5093265;28;20047;-75
2021/07/27 02:01:37;;;;;;;52.05;35.03;;;18.30;99.90;;;;;;5093843;28;20042;-75
2021/07/27 02:04:03;;;;;;;55.28;36.70;;;18.30;99.90;;;;;;5093494;28;20036;-75
2021/07/27 02:06:29;;;;;;;53.63;34.33;;;18.30;99.90;;;;;;5093631;28;20032;-75
2021/07/27 02:08:55;;;;;;;50.88;36.15;;;18.30;99.90;;;;;;5093053;28;20119;-75
2021/07/27 02:11:26;;;;;;;54.75;35.28;;;18.30;99.90;;;;;;5093302;28;20040;-74
2021/07/27 02:13:54;;;;;;;58.78;38.53;;;18.30;99.90;;;;;;5093292;28;20127;-75
2021/07/27 02:16:20;;;;;;;60.08;39.53;;;18.30;99.90;;;;;;5093325;28;20044;-75
2021/07/27 02:18:46;;;;;;;51.90;35.22;;;18.30;99.90;;;;;;5093470;28;20412;-75
2021/07/27 02:21:12;;;;;;;55.55;37.55;;;18.40;99.90;;;;;;5093602;28;20415;-74
2021/07/27 02:23:37;;;;;;;56.17;39.15;;;18.40;99.90;;;;;;5093313;28;20036;-75
2021/07/27 02:26:04;;;;;;;58.28;38.58;;;18.40;99.90;;;;;;5093221;28;20051;-74
2021/07/27 02:28:33;;;;;;;68.15;42.95;;;18.40;99.90;;;;;;5092805;28;20040;-75
2021/07/27 02:31:01;;;;;;;69.03;42.70;;;18.40;99.90;;;;;;5093175;28;20036;-74
2021/07/27 02:33:28;;;;;;;57.63;38.35;;;18.40;99.90;;;;;;5093310;28;20090;-74
2021/07/27 02:35:54;;;;;;;59.83;39.20;;;18.40;99.90;;;;;;5093296;28;20043;-75
2021/07/27 02:38:20;;;;;;;64.93;39.45;;;18.50;99.90;;;;;;5093188;28;20040;-75
2021/07/27 02:40:46;;;;;;;61.72;39.65;;;18.40;99.90;;;;;;5092785;28;20094;-75
2021/07/27 02:43:11;;;;;;;64.72;38.03;;;18.50;99.90;;;;;;5093497;28;20039;-74
2021/07/27 02:45:37;;;;;;;57.97;38.83;;;18.50;99.90;;;;;;5093626;28;20044;-75
2021/07/27 02:48:04;;;;;;;60.22;37.00;;;18.40;99.90;;;;;;5093803;28;20410;-74
2021/07/27 02:50:46;;;;;;;59.30;38.53;;;18.40;99.90;;;;;;5092633;28;20472;-75
2021/07/27 02:53:11;;;;;;;50.63;33.83;;;18.40;99.90;;;;;;5093086;28;20044;-75
2021/07/27 02:55:37;;;;;;;52.15;32.42;;;18.40;99.90;;;;;;5093064;28;20114;-74
2021/07/27 02:58:23;;;;;;;51.78;32.67;;;18.40;99.90;;;;;;5093497;28;20072;-75
2021/07/27 03:00:49;;;;;;;47.22;31.10;;;18.40;99.90;;;;;;5092540;28;20120;-75
2021/07/27 03:03:14;;;;;;;42.92;28.23;;;18.40;99.90;;;;;;5093382;28;20075;-75
2021/07/27 03:05:40;;;;;;;48.88;31.15;;;18.40;99.90;;;;;;5092909;28;20480;-75
2021/07/27 03:08:10;;;;;;;42.45;28.48;;;18.40;99.90;;;;;;5092854;28;20036;-75
2021/07/27 03:10:36;;;;;;;47.35;28.48;;;18.40;99.90;;;;;;5092914;28;20036;-75
2021/07/27 03:13:02;;;;;;;42.67;26.58;;;18.40;99.90;;;;;;5093088;28;20046;-75
2021/07/27 03:15:31;;;;;;;34.83;23.38;;;18.30;99.90;;;;;;5093467;28;20036;-75
2021/07/27 03:17:58;;;;;;;35.13;22.73;;;18.30;99.90;;;;;;5092858;28;20036;-75
2021/07/27 03:20:27;;;;;;;33.47;20.83;;;18.30;99.90;;;;;;5092356;28;20069;-75
2021/07/27 03:22:54;;;;;;;32.53;21.20;;;18.30;99.90;;;;;;5096228;28;20040;-75
2021/07/27 03:25:21;;;;;;;30.30;21.05;;;18.30;99.90;;;;;;5096359;28;20114;-75
2021/07/27 03:27:49;;;;;;;33.40;21.48;;;18.30;99.90;;;;;;5097070;28;20036;-75
2021/07/27 03:30:19;;;;;;;32.55;21.40;;;18.30;99.90;;;;;;5095952;28;20040;-75
2021/07/27 03:32:46;;;;;;;33.05;20.80;;;18.30;99.90;;;;;;5096335;28;20040;-75
2021/07/27 03:35:13;;;;;;;32.80;20.45;;;18.30;99.90;;;;;;5096883;28;20472;-75
2021/07/27 03:37:38;;;;;;;35.20;22.38;;;18.30;99.90;;;;;;5096249;28;20047;-74
2021/07/27 03:40:05;;;;;;;36.38;23.00;;;18.30;99.90;;;;;;5095708;28;20032;-74
2021/07/27 03:42:31;;;;;;;34.35;22.20;;;18.30;99.90;;;;;;5096115;28;20036;-74
2021/07/27 03:44:59;;;;;;;32.63;22.75;;;18.30;99.90;;;;;;5096010;28;20042;-74
2021/07/27 03:47:25;;;;;;;32.35;22.23;;;18.40;99.90;;;;;;5096168;28;20044;-74
2021/07/27 03:49:53;;;;;;;31.27;21.25;;;18.40;99.90;;;;;;5095734;28;20094;-75
2021/07/27 03:52:19;;;;;;;32.22;21.77;;;18.30;99.90;;;;;;5095743;28;20040;-75
2021/07/27 03:54:44;;;;;;;33.85;21.17;;;18.20;99.90;;;;;;5096398;28;20039;-75
2021/07/27 03:57:10;;;;;;;27.48;20.13;;;18.20;99.90;;;;;;5095687;28;20040;-75
2021/07/27 03:59:36;;;;;;;39.03;23.75;;;18.10;99.90;;;;;;5095432;28;20036;-75
2021/07/27 04:02:02;;;;;;;31.73;21.48;;;18.10;99.90;;;;;;5095639;28;20043;-74
2021/07/27 04:04:31;;;;;;;34.05;20.83;;;18.10;99.90;;;;;;5095904;28;20040;-74
2021/07/27 04:06:57;;;;;;;34.22;21.95;;;18.10;99.90;;;;;;5095498;28;20028;-74
2021/07/27 04:09:30;;;;;;;30.33;20.80;;;18.00;99.90;;;;;;5095551;28;20038;-74
2021/07/27 04:11:56;;;;;;;34.25;21.10;;;18.00;99.90;;;;;;5095585;28;20046;-74
2021/07/27 04:14:22;;;;;;;30.05;20.85;;;17.90;99.90;;;;;;5095482;28;20369;-74
2021/07/27 04:16:48;;;;;;;31.25;20.63;;;17.90;99.90;;;;;;5095215;28;20043;-75
2021/07/27 04:19:13;;;;;;;33.10;22.23;;;17.90;99.90;;;;;;5095078;28;20036;-75
2021/07/27 04:21:43;;;;;;;28.85;20.15;;;17.90;99.90;;;;;;5095102;28;20468;-74
2021/07/27 04:24:16;;;;;;;27.67;20.25;;;17.90;99.90;;;;;;5095339;28;20341;-75
2021/07/27 04:26:42;;;;;;;23.50;18.35;;;17.90;99.90;;;;;;5095629;28;20040;-74
2021/07/27 04:29:14;;;;;;;26.90;17.00;;;17.90;99.90;;;;;;5094729;28;20446;-74
2021/07/27 04:31:40;;;;;;;26.27;18.95;;;17.90;99.90;;;;;;5095286;28;20089;-75
2021/07/27 04:34:06;;;;;;;21.65;16.40;;;17.90;99.90;;;;;;5094512;28;20036;-74
2021/07/27 04:36:31;;;;;;;24.58;17.25;;;17.90;99.90;;;;;;5095770;28;20044;-73
2021/07/27 04:38:57;;;;;;;22.88;16.98;;;17.90;99.90;;;;;;5095347;28;20060;-74
2021/07/27 04:41:23;;;;;;;23.17;17.98;;;17.80;99.90;;;;;;5095044;28;20086;-74
2021/07/27 04:43:49;;;;;;;22.45;15.70;;;17.80;99.90;;;;;;5095142;28;20040;-74
2021/07/27 04:46:14;;;;;;;26.92;18.10;;;17.80;99.90;;;;;;5095462;28;20036;-74
2021/07/27 04:48:40;;;;;;;24.10;17.10;;;17.80;99.90;;;;;;5094695;28;20098;-75
2021/07/27 04:51:06;;;;;;;23.58;16.70;;;17.90;99.90;;;;;;5095011;28;20040;-74
2021/07/27 04:53:35;;;;;;;27.27;17.88;;;17.90;99.90;;;;;;5094804;28;20039;-75
2021/07/27 04:56:02;;;;;;;29.08;18.48;;;17.80;99.90;;;;;;5095337;28;20115;-74
2021/07/27 04:58:28;;;;;;;26.83;17.27;;;17.80;99.90;;;;;;5094575;28;20036;-75
2021/07/27 05:01:01;;;;;;;25.92;17.67;;;17.80;99.90;;;;;;5094955;28;20036;-74
2021/07/27 05:03:31;;;;;;;26.05;18.40;;;17.80;99.90;;;;;;5094426;28;20054;-74
2021/07/27 05:05:57;;;;;;;29.33;20.00;;;17.80;99.90;;;;;;5094654;28;20032;-74
2021/07/27 05:08:22;;;;;;;27.65;19.40;;;17.90;99.90;;;;;;5094286;28;20161;-74
2021/07/27 05:10:48;;;;;;;27.73;19.25;;;17.90;99.90;;;;;;5094039;28;20070;-74
2021/07/27 05:13:14;;;;;;;28.88;19.23;;;18.00;99.90;;;;;;5094163;28;20043;-74
2021/07/27 05:15:40;;;;;;;24.67;19.05;;;18.10;99.90;;;;;;5094242;28;20047;-74
2021/07/27 05:18:05;;;;;;;26.98;20.13;;;18.20;99.90;;;;;;5094031;28;20036;-73
2021/07/27 05:20:31;;;;;;;27.50;18.92;;;18.30;99.90;;;;;;5093878;28;20062;-74
2021/07/27 05:22:57;;;;;;;24.58;19.00;;;18.30;99.90;;;;;;5094053;28;20040;-74
2021/07/27 05:25:24;;;;;;;29.92;21.20;;;18.30;99.90;;;;;;5094649;28;20047;-74
2021/07/27 05:27:50;;;;;;;29.80;19.88;;;18.30;99.90;;;;;;5094015;28;20036;-74
2021/07/27 05:30:16;;;;;;;33.42;22.10;;;18.30;99.90;;;;;;5093915;28;20036;-74
2021/07/27 05:32:43;;;;;;;27.13;20.02;;;18.30;99.90;;;;;;5094078;28;20051;-74
2021/07/27 05:35:10;;;;;;;31.42;21.52;;;18.30;99.90;;;;;;5094261;28;20067;-74
2021/07/27 05:37:36;;;;;;;29.80;20.10;;;18.30;99.90;;;;;;5094203;28;20488;-73
2021/07/27 05:40:03;;;;;;;31.58;21.13;;;18.30;99.90;;;;;;5093432;28;20071;-70
2021/07/27 05:42:29;;;;;;;33.53;22.05;;;18.30;99.90;;;;;;5093673;28;20082;-71
2021/07/27 05:44:55;;;;;;;31.75;20.67;;;18.30;99.90;;;;;;5093396;28;20032;-71
2021/07/27 05:47:20;;;;;;;27.45;19.02;;;18.30;99.90;;;;;;5093942;28;20040;-71
2021/07/27 05:49:46;;;;;;;31.63;21.05;;;18.30;99.90;;;;;;5093772;28;20036;-71
2021/07/27 05:52:12;;;;;;;32.05;20.40;;;18.30;99.90;;;;;;5093750;28;20039;-71
2021/07/27 05:54:42;;;;;;;28.25;20.33;;;18.40;99.90;;;;;;5093712;28;20040;-71
2021/07/27 05:57:12;;;;;;;29.70;19.73;;;18.40;99.90;;;;;;5094109;28;20036;-71
2021/07/27 05:59:38;;;;;;;30.30;18.90;;;18.40;99.90;;;;;;5093616;28;20063;-71
2021/07/27 06:02:04;;;;;;;28.10;18.92;;;18.40;99.90;;;;;;5093470;28;20043;-71
2021/07/27 06:04:30;;;;;;;25.80;18.83;;;18.40;99.90;;;;;;5093515;28;20040;-71
2021/07/27 06:06:55;;;;;;;24.67;18.27;;;18.40;99.90;;;;;;5093461;28;20044;-71
2021/07/27 06:09:21;;;;;;;27.02;18.58;;;18.40;99.90;;;;;;5093080;28;20499;-71
2021/07/27 06:11:47;;;;;;;25.92;19.23;;;18.40;99.90;;;;;;5093530;28;20511;-71
2021/07/27 06:14:12;;;;;;;28.48;19.25;;;18.50;99.90;;;;;;5094226;28;20081;-71
2021/07/27 06:16:39;;;;;;;29.73;19.85;;;18.50;99.90;;;;;;5093630;28;20032;-71
2021/07/27 06:19:06;;;;;;;27.13;18.27;;;18.50;99.90;;;;;;5093105;28;20036;-72
2021/07/27 06:21:39;;;;;;;;;;;18.50;99.90;;;;;;5093719;28;20039;-71
2021/07/27 06:24:09;;;;;;;26.75;18.30;;;18.50;99.90;;;;;;5093732;28;19916;-71
2021/07/27 06:26:37;;;;;;;28.67;19.45;;;18.50;99.90;;;;;;5093691;28;20393;-72
2021/07/27 06:29:04;;;;;;;28.42;20.85;;;18.50;99.90;;;;;;5093018;28;20074;-71
2021/07/27 06:31:30;;;;;;;32.03;21.98;;;18.60;99.90;;;;;;5093193;28;20401;-71
2021/07/27 06:33:57;;;;;;;29.98;20.58;;;18.60;99.90;;;;;;5093325;28;20032;-71
2021/07/27 06:36:22;;;;;;;28.23;21.15;;;18.70;99.90;;;;;;5093164;28;20036;-71
2021/07/27 06:38:48;;;;;;;29.58;19.88;;;18.70;99.90;;;;;;5093043;28;20446;-71
2021/07/27 06:41:14;;;;;;;31.83;22.75;;;18.80;99.90;;;;;;5093078;28;20040;-71
2021/07/27 06:43:41;;;;;;;38.00;23.58;;;18.80;99.90;;;;;;5093857;28;20044;-71
2021/07/27 06:46:07;;;;;;;37.35;24.27;;;18.90;99.90;;;;;;5093319;28;20044;-72
2021/07/27 06:48:33;;;;;;;34.75;25.25;;;19.10;99.90;;;;;;5093034;28;20115;-71
2021/07/27 06:51:10;;;;;;;42.17;26.35;;;19.20;99.90;;;;;;5093193;28;20070;-72
2021/07/27 06:53:36;;;;;;;41.97;28.30;;;19.30;99.90;;;;;;5093796;28;20040;-71
2021/07/27 06:56:02;;;;;;;38.35;27.00;;;19.30;99.90;;;;;;5094505;28;20051;-71
2021/07/27 06:58:28;;;;;;;41.05;27.67;;;19.30;99.90;;;;;;5096714;28;20396;-72
2021/07/27 07:00:53;;;;;;;42.30;27.52;;;19.20;99.90;;;;;;5096946;28;20085;-69
2021/07/27 07:03:19;;;;;;;39.75;27.17;;;19.20;99.90;;;;;;5096862;28;20036;-70
2021/07/27 07:05:45;;;;;;;43.53;28.58;;;19.10;99.90;;;;;;5097042;28;20535;-71
2021/07/27 07:08:10;;;;;;;43.28;29.10;;;19.30;99.90;;;;;;5097245;28;20044;-71
2021/07/27 07:10:39;;;;;;;45.42;28.60;;;19.20;99.90;;;;;;5096342;28;20036;-71
2021/07/27 07:13:05;;;;;;;48.40;30.15;;;19.20;99.90;;;;;;5096523;28;20050;-71
2021/07/27 07:15:30;;;;;;;43.05;29.92;;;19.30;99.90;;;;;;5096955;28;20115;-71
2021/07/27 07:17:56;;;;;;;50.85;35.55;;;19.20;99.90;;;;;;5097107;28;20040;-71
2021/07/27 07:20:22;;;;;;;47.08;29.90;;;19.40;99.90;;;;;;5096095;28;20089;-71
2021/07/27 07:22:47;;;;;;;43.28;29.30;;;19.40;99.90;;;;;;5096987;28;20399;-71
2021/07/27 07:25:13;;;;;;;51.25;29.80;;;19.60;99.90;;;;;;5096527;28;20040;-71
2021/07/27 07:27:39;;;;;;;44.25;29.25;;;19.80;99.90;;;;;;5096252;28;20055;-71
2021/07/27 07:30:06;;;;;;;44.58;29.30;;;19.80;99.90;;;;;;5096040;28;20472;-71
2021/07/27 07:32:31;;;;;;;43.70;29.58;;;20.10;99.90;;;;;;5096839;28;20130;-71
2021/07/27 07:34:59;;;;;;;45.83;30.38;;;20.00;99.90;;;;;;5095133;28;20504;-71
2021/07/27 07:37:24;;;;;;;48.95;30.15;;;20.10;99.90;;;;;;5096646;28;20048;-71
2021/07/27 07:39:50;;;;;;;48.15;29.60;;;20.10;99.90;;;;;;5095970;28;20499;-71
2021/07/27 07:42:16;;;;;;;50.08;31.73;;;20.20;99.90;;;;;;5095986;28;20536;-71
2021/07/27 07:44:41;;;;;;;44.53;28.77;;;20.60;99.90;;;;;;5096191;28;20044;-71
2021/07/27 07:47:07;;;;;;;47.50;30.75;;;20.90;99.90;;;;;;5096330;28;20036;-71
2021/07/27 07:49:32;;;;;;;47.10;29.45;;;21.10;99.90;;;;;;5095589;28;20036;-71
2021/07/27 07:51:58;;;;;;;48.78;33.38;;;21.00;99.90;;;;;;5095911;28;20049;-71
2021/07/27 07:54:24;;;;;;;53.63;32.10;;;20.90;99.90;;;;;;5095941;28;20040;-71
2021/07/27 07:56:51;;;;;;;49.30;31.98;;;20.70;99.90;;;;;;5095928;28;20115;-71
2021/07/27 07:59:17;;;;;;;54.42;34.33;;;20.70;99.90;;;;;;5095678;28;20032;-70
2021/07/27 08:01:48;;;;;;;53.28;33.47;;;20.70;99.90;;;;;;5096144;28;20043;-71
2021/07/27 08:04:17;;;;;;;54.50;33.17;;;20.70;99.90;;;;;;5095982;28;20097;-71
2021/07/27 08:06:42;;;;;;;49.17;31.77;;;20.70;99.90;;;;;;5094914;28;20036;-71
2021/07/27 08:09:08;;;;;;;56.33;32.65;;;20.80;99.90;;;;;;5095759;28;20460;-70
2021/07/27 08:11:34;;;;;;;47.40;30.50;;;21.40;99.90;;;;;;5095694;28;20032;-69
2021/07/27 08:14:00;;;;;;;43.40;30.75;;;21.80;99.90;;;;;;5095811;28;20044;-70
2021/07/27 08:16:26;;;;;;;48.63;30.40;;;22.10;99.90;;;;;;5095918;28;20032;-70
2021/07/27 08:18:52;;;;;;;43.97;30.38;;;22.20;99.90;;;;;;5095607;28;20114;-69
2021/07/27 08:21:23;;;;;;;41.72;28.73;;;22.50;99.90;;;;;;5095463;28;20101;-69
2021/07/27 08:23:48;;;;;;;46.58;30.30;;;22.70;99.90;;;;;;5095689;28;20460;-71
2021/07/27 08:26:14;;;;;;;50.60;28.27;;;23.00;99.90;;;;;;5095494;28;20127;-72
2021/07/27 08:28:42;;;;;;;38.97;27.83;;;23.00;99.90;;;;;;5094752;28;20047;-71
2021/07/27 08:31:10;;;;;;;41.88;26.98;;;22.90;99.90;;;;;;5094988;28;20093;-71
2021/07/27 08:33:35;;;;;;;39.50;28.25;;;22.90;99.90;;;;;;5095042;28;20044;-70
2021/07/27 08:36:01;;;;;;;38.92;26.90;;;22.80;99.90;;;;;;5095178;28;20437;-69
2021/07/27 08:38:27;;;;;;;40.88;27.08;;;22.70;99.90;;;;;;5094902;28;20479;-72
2021/07/27 08:40:57;;;;;;;39.25;27.13;;;22.60;99.90;;;;;;5095028;28;20036;-69
2021/07/27 08:43:24;;;;;;;35.78;25.88;;;22.80;99.90;;;;;;5095328;28;20085;-71
2021/07/27 08:45:50;;;;;;;38.97;27.48;;;22.60;99.90;;;;;;5095161;28;20046;-71
2021/07/27 08:48:17;;;;;;;37.95;27.02;;;22.70;99.90;;;;;;5094939;28;20109;-71
2021/07/27 08:50:44;;;;;;;35.75;25.85;;;22.70;99.90;;;;;;5094511;28;20396;-71
2021/07/27 08:53:10;;;;;;;38.53;26.05;;;22.60;99.90;;;;;;5094637;28;20539;-71
2021/07/27 08:55:36;;;;;;;34.72;27.13;;;22.50;99.90;;;;;;5094870;28;20115;-71
2021/07/27 08:58:02;;;;;;;30.65;24.38;;;22.70;99.90;;;;;;5093967;28;20048;-71
2021/07/27 09:00:30;;;;;;;41.38;29.52;;;23.10;99.90;;;;;;5094212;28;20043;-69
2021/07/27 09:03:13;;;;;;;33.15;25.90;;;23.10;99.90;;;;;;5094922;28;20051;-69
2021/07/27 09:05:39;;;;;;;35.20;26.77;;;23.30;99.90;;;;;;5093954;28;20071;-69
2021/07/27 09:08:07;;;;;;;37.75;27.10;;;23.10;99.90;;;;;;5093751;28;20067;-68
2021/07/27 09:10:40;;;;;;;39.53;24.58;;;22.90;99.90;;;;;;5093663;28;20028;-68
2021/07/27 09:13:08;;;;;;;37.00;24.48;;;22.90;99.90;;;;;;5094323;28;20488;-69
2021/07/27 09:15:36;;;;;;;37.42;25.80;;;23.00;99.90;;;;;;5094503;28;20076;-69
2021/07/27 09:18:06;;;;;;;36.00;26.00;;;23.10;99.90;;;;;;5094280;28;20036;-69
2021/07/27 09:20:41;;;;;;;34.83;25.20;;;23.00;99.90;;;;;;5093622;28;20047;-69
2021/07/27 09:23:19;;;;;;;37.13;25.08;;;22.90;99.90;;;;;;5094469;28;20040;-69
2021/07/27 09:25:52;;;;;;;32.63;23.90;;;22.90;99.90;;;;;;5094277;28;20052;-69
2021/07/27 09:28:19;;;;;;;35.30;23.85;;;22.90;99.90;;;;;;5093938;28;20115;-69
2021/07/27 09:30:47;;;;;;;32.95;23.98;;;22.80;99.90;;;;;;5093781;28;20040;-69
2021/07/27 09:33:15;;;;;;;38.00;25.20;;;23.00;99.90;;;;;;5093859;28;20040;-69
2021/07/27 09:35:44;;;;;;;33.22;25.15;;;23.00;99.90;;;;;;5094022;28;20040;-68
2021/07/27 09:38:11;;;;;;;33.53;24.23;;;23.10;99.90;;;;;;5094481;28;20083;-68
2021/07/27 09:40:47;;;;;;;38.22;26.33;;;23.10;99.90;;;;;;5093369;28;20046;-69
2021/07/27 09:43:16;;;;;;;33.08;25.85;;;23.10;99.90;;;;;;5093833;28;20036;-69
2021/07/27 09:45:47;;;;;;;33.80;25.60;;;23.40;99.90;;;;;;5093147;28;20395;-69
2021/07/27 09:48:17;;;;;;;32.33;25.45;;;23.70;99.90;;;;;;5093661;28;20100;-69
2021/07/27 09:50:51;;;;;;;34.60;26.38;;;23.70;99.90;;;;;;5093838;28;20109;-69
2021/07/27 09:53:17;;;;;;;34.03;25.42;;;23.70;99.90;;;;;;5093617;28;20453;-69
2021/07/27 09:55:43;;;;;;;34.33;25.27;;;24.00;99.90;;;;;;5094017;28;20036;-69
2021/07/27 09:58:10;;;;;;;29.92;23.50;;;24.40;99.90;;;;;;5093781;28;20047;-69
2021/07/27 10:01:00;;;;;;;29.15;23.40;;;24.60;99.90;;;;;;5093515;28;20044;-70
2021/07/27 10:03:32;;;;;;;29.98;23.52;;;24.80;99.90;;;;;;5094140;28;20101;-70
2021/07/27 10:06:02;;;;;;;30.43;22.97;;;24.90;99.90;;;;;;5093630;28;20039;-69
2021/07/27 10:08:36;;;;;;;29.17;21.55;;;24.80;99.90;;;;;;5093481;28;20286;-68
2021/07/27 10:11:32;;;;;;;31.40;23.63;;;24.80;99.90;;;;;;5093779;28;20047;-70
2021/07/27 10:14:06;;;;;;;33.53;23.77;;;24.60;99.30;;;;;;5093328;28;20075;-70
2021/07/27 10:16:31;;;;;;;27.55;22.30;;;24.40;99.90;;;;;;5092637;28;20061;-70
2021/07/27 10:18:57;;;;;;;29.65;23.02;;;24.50;99.90;;;;;;5093452;28;20071;-70
2021/07/27 10:21:28;;;;;;;26.90;22.02;;;24.40;99.90;;;;;;5093499;28;20519;-70
2021/07/27 10:24:08;;;;;;;27.23;20.80;;;24.50;99.40;;;;;;5092426;28;20048;-70
2021/07/27 10:26:34;;;;;;;31.20;25.55;;;24.60;99.10;;;;;;5093762;28;20040;-70
2021/07/27 10:29:00;;;;;;;26.63;21.85;;;24.40;98.90;;;;;;5092907;28;20036;-70
2021/07/27 10:31:35;;;;;;;34.28;22.88;;;24.50;99.60;;;;;;5097195;28;20055;-71
2021/07/27 10:34:03;;;;;;;28.27;21.45;;;24.50;99.90;;;;;;5098178;28;20046;-70
2021/07/27 10:36:34;;;;;;;29.73;22.00;;;24.60;99.90;;;;;;5097413;28;20086;-70
2021/07/27 10:39:10;;;;;;;25.38;21.67;;;24.70;99.90;;;;;;5096994;28;20043;-71
2021/07/27 10:41:37;;;;;;;28.58;19.88;;;24.70;99.90;;;;;;5097762;28;20101;-71
2021/07/27 10:44:05;;;;;;;28.35;21.15;;;24.90;99.90;;;;;;5097412;28;20043;-71
2021/07/27 10:46:35;;;;;;;25.02;18.58;;;24.80;99.90;;;;;;5097518;28;20486;-71
2021/07/27 10:49:01;;;;;;;24.23;19.85;;;24.70;98.10;;;;;;5097535;28;20081;-71
2021/07/27 10:51:28;;;;;;;24.15;20.10;;;24.60;99.80;;;;;;5097628;28;20402;-71
2021/07/27 10:53:57;;;;;;;25.13;21.25;;;24.40;99.90;;;;;;5097025;28;20071;-70
2021/07/27 10:56:28;;;;;;;29.65;21.52;;;24.30;99.60;;;;;;5097212;28;20376;-70
2021/07/27 10:58:54;;;;;;;25.13;19.40;;;24.10;99.90;;;;;;5096851;28;20042;-70
2021/07/27 11:01:21;;;;;;;23.58;18.15;;;24.00;99.90;;;;;;5096947;28;20119;-70
2021/07/27 11:03:48;;;;;;;20.30;16.35;;;24.00;99.90;;;;;;5096050;28;20043;-70
2021/07/27 11:06:14;;;;;;;19.00;16.38;;;24.10;99.90;;;;;;5097410;28;20036;-70
2021/07/27 11:08:41;;;;;;;17.48;14.95;;;24.30;99.90;;;;;;5096359;28;20039;-69
2021/07/27 11:11:11;;;;;;;17.00;14.73;;;24.30;99.90;;;;;;5096810;28;20396;-68
2021/07/27 11:13:38;;;;;;;19.10;14.20;;;24.60;99.90;;;;;;5096978;28;20476;-69
2021/07/27 11:16:06;;;;;;;20.10;14.07;;;24.60;99.90;;;;;;5097080;28;20043;-70
2021/07/27 11:18:31;;;;;;;17.73;14.80;;;24.30;99.90;;;;;;5096801;28;20185;-70
2021/07/27 11:20:59;;;;;;;20.65;15.90;;;24.00;99.90;;;;;;5095589;28;20543;-69
2021/07/27 11:23:31;;;;;;;19.13;14.45;;;24.00;99.90;;;;;;5095461;28;20457;-69
2021/07/27 11:25:57;;;;;;;19.98;15.32;;;24.00;99.90;;;;;;5097057;28;20538;-69
2021/07/27 11:28:38;;;;;;;19.63;15.27;;;23.90;99.90;;;;;;5096258;28;20064;-69
2021/07/27 11:31:19;;;;;;;17.13;14.10;;;23.70;99.90;;;;;;5096415;28;20480;-69
2021/07/27 11:33:52;;;;;;;18.25;14.50;;;23.50;99.90;;;;;;5096730;28;20044;-68
2021/07/27 11:36:27;;;;;;;19.45;14.20;;;23.60;99.90;;;;;;5096421;28;20036;-69
2021/07/27 11:39:06;;;;;;;17.20;14.57;;;23.60;99.90;;;;;;5095684;28;20492;-70
2021/07/27 11:41:32;;;;;;;24.77;14.27;;;23.60;99.90;;;;;;5095369;28;20186;-70
2021/07/27 11:43:57;;;;;;;21.42;14.75;;;23.60;99.90;;;;;;5095887;28;20109;-68
2021/07/27 11:46:38;;;;;;;16.83;13.70;;;23.70;99.90;;;;;;5096188;28;20082;-69
2021/07/27 11:49:08;;;;;;;17.58;13.68;;;23.80;99.90;;;;;;5096214;28;20111;-70
2021/07/27 11:51:34;;;;;;;21.23;15.43;;;23.70;99.90;;;;;;5094954;28;20048;-72
2021/07/27 11:54:00;;;;;;;18.38;15.10;;;23.50;99.90;;;;;;5096074;28;20046;-71
2021/07/27 11:56:26;;;;;;;20.33;15.48;;;23.30;99.90;;;;;;5096327;28;20032;-73
2021/07/27 11:59:05;;;;;;;18.13;15.00;;;23.20;99.90;;;;;;5095555;28;20040;-73
2021/07/27 12:01:38;;;;;;;18.13;15.55;;;23.20;99.90;;;;;;5096024;28;20032;-73
2021/07/27 12:04:04;;;;;;;20.88;16.15;;;23.20;99.90;;;;;;5095670;28;20043;-73
2021/07/27 12:06:31;;;;;;;23.42;15.05;;;23.30;99.90;;;;;;5094583;28;20044;-73
2021/07/27 12:09:00;;;;;;;19.50;14.07;;;23.30;99.90;;;;;;5095214;28;20040;-73
2021/07/27 12:11:26;;;;;;;19.55;16.10;;;23.20;99.90;;;;;;5095496;28;20083;-73
2021/07/27 12:13:52;;;;;;;19.63;15.52;;;23.10;99.90;;;;;;5095551;28;20484;-72
2021/07/27 12:16:17;;;;;;;19.67;15.23;;;22.90;99.90;;;;;;5095678;28;20111;-72
2021/07/27 12:18:43;;;;;;;22.40;15.70;;;22.90;99.90;;;;;;5095601;28;20075;-72
2021/07/27 12:21:09;;;;;;;23.73;16.50;;;23.10;99.90;;;;;;5095292;28;20031;-72
2021/07/27 12:23:38;;;;;;;17.95;15.75;;;23.20;99.90;;;;;;5094229;28;20369;-72
2021/07/27 12:26:04;;;;;;;17.85;15.13;;;23.40;99.90;;;;;;5095779;28;20036;-72
2021/07/27 12:28:30;;;;;;;19.40;16.05;;;23.50;99.90;;;;;;5095206;28;20085;-73
2021/07/27 12:30:56;;;;;;;18.60;15.52;;;23.50;99.90;;;;;;5095301;28;20119;-72
2021/07/27 12:33:22;;;;;;;18.40;15.80;;;23.30;99.90;;;;;;5095797;28;20384;-72
2021/07/27 12:35:48;;;;;;;16.63;14.30;;;23.40;99.90;;;;;;5095205;28;20048;-72
2021/07/27 12:38:13;;;;;;;20.25;15.55;;;23.40;99.90;;;;;;5095262;28;20373;-72
2021/07/27 12:40:39;;;;;;;18.65;16.08;;;23.30;99.90;;;;;;5094423;28;20054;-71
2021/07/27 12:43:05;;;;;;;19.23;15.73;;;23.20;99.90;;;;;;5095443;28;20036;-72
2021/07/27 12:45:32;;;;;;;22.17;15.65;;;23.20;99.90;;;;;;5095074;28;20536;-72
2021/07/27 12:47:59;;;;;;;25.35;17.52;;;23.20;99.90;;;;;;5095449;28;20044;-72
2021/07/27 12:50:25;;;;;;;24.27;17.08;;;23.30;99.90;;;;;;5094502;28;20043;-72
2021/07/27 12:52:50;;;;;;;20.35;16.35;;;23.40;99.90;;;;;;5094071;28;20052;-70
2021/07/27 12:55:16;;;;;;;19.45;13.80;;;23.40;99.90;;;;;;5093166;28;20028;-73